createdAt,value
2018-07-04T00:00:37.477Z,0.00
2018-07-04T00:01:37.573Z,0.00
2018-07-04T00:02:37.668Z,0.00
2018-07-04T00:03:37.763Z,0.00
2018-07-04T00:04:37.861Z,0.00
2018-07-04T00:05:37.974Z,0.00
2018-07-04T00:06:38.070Z,0.00
2018-07-04T00:07:38.168Z,0.00
2018-07-04T00:08:38.268Z,0.00
2018-07-04T00:09:38.366Z,0.00
2018-07-04T00:10:38.462Z,0.00
2018-07-04T00:11:38.560Z,0.00
2018-07-04T00:12:38.659Z,0.00
2018-07-04T00:13:38.758Z,0.00
2018-07-04T00:14:38.858Z,0.00
2018-07-04T00:15:38.978Z,0.00
2018-07-04T00:16:39.069Z,0.00
2018-07-04T00:17:39.166Z,0.00
2018-07-04T00:18:39.262Z,0.00
2018-07-04T00:19:39.360Z,0.00
2018-07-04T00:20:39.458Z,0.00
2018-07-04T00:21:39.555Z,0.00
2018-07-04T00:22:39.653Z,0.00
2018-07-04T00:23:39.749Z,0.00
2018-07-04T00:24:39.846Z,0.00
2018-07-04T00:25:39.994Z,0.00
2018-07-04T00:26:40.041Z,0.00
2018-07-04T00:27:40.137Z,0.00
2018-07-04T00:28:40.235Z,0.00
2018-07-04T00:29:40.326Z,0.00
2018-07-04T00:30:40.433Z,0.00
2018-07-04T00:31:40.519Z,0.00
2018-07-04T00:32:40.615Z,0.00
2018-07-04T00:33:40.713Z,0.00
2018-07-04T00:34:40.811Z,0.00
2018-07-04T00:35:40.909Z,0.00
2018-07-04T00:36:41.006Z,0.00
2018-07-04T00:37:41.104Z,0.00
2018-07-04T00:38:41.205Z,0.00
2018-07-04T00:39:41.297Z,0.00
2018-07-04T00:40:41.393Z,0.00
2018-07-04T00:41:41.490Z,0.00
2018-07-04T00:42:41.587Z,0.00
2018-07-04T00:43:41.685Z,0.00
2018-07-04T00:44:41.782Z,0.00
2018-07-04T00:45:41.882Z,0.00
2018-07-04T00:46:41.978Z,0.00
2018-07-04T00:47:42.079Z,0.00
2018-07-04T00:48:42.170Z,0.00
2018-07-04T00:49:42.261Z,0.00
2018-07-04T00:50:42.361Z,0.00
2018-07-04T00:51:42.502Z,0.00
2018-07-04T00:52:42.554Z,0.00
2018-07-04T00:53:42.653Z,0.00
2018-07-04T00:54:42.749Z,0.00
2018-07-04T00:55:42.845Z,0.00
2018-07-04T00:56:42.942Z,0.00
2018-07-04T00:57:43.040Z,0.00
2018-07-04T00:58:43.136Z,0.00
2018-07-04T00:59:43.232Z,0.00
2018-07-04T01:00:43.332Z,0.00
2018-07-04T01:01:43.429Z,0.00
2018-07-04T01:02:43.545Z,0.00
2018-07-04T01:03:43.643Z,0.00
2018-07-04T01:04:43.739Z,0.00
2018-07-04T01:05:43.836Z,0.00
2018-07-04T01:06:43.934Z,0.00
2018-07-04T01:07:44.031Z,0.00
2018-07-04T01:08:44.132Z,0.00
2018-07-04T01:09:44.209Z,0.00
2018-07-04T01:10:44.323Z,0.00
2018-07-04T01:11:44.418Z,0.00
2018-07-04T01:12:44.512Z,0.00
2018-07-04T01:13:44.612Z,0.00
2018-07-04T01:14:44.705Z,0.00
2018-07-04T01:15:44.821Z,0.00
2018-07-04T01:16:44.905Z,0.00
2018-07-04T01:17:45.000Z,0.00
2018-07-04T01:18:45.099Z,0.00
2018-07-04T01:19:45.195Z,0.00
2018-07-04T01:20:45.290Z,0.00
2018-07-04T01:21:45.383Z,0.00
2018-07-04T01:22:45.485Z,0.00
2018-07-04T01:23:45.582Z,0.00
2018-07-04T01:24:45.680Z,0.00
2018-07-04T01:25:45.776Z,0.00
2018-07-04T01:26:45.873Z,0.00
2018-07-04T01:27:45.970Z,0.00
2018-07-04T01:28:46.066Z,0.00
2018-07-04T01:29:46.170Z,0.00
2018-07-04T01:30:46.265Z,0.00
2018-07-04T01:31:46.362Z,0.00
2018-07-04T01:32:46.457Z,0.00
2018-07-04T01:33:46.555Z,0.00
2018-07-04T01:34:46.649Z,0.00
2018-07-04T01:35:46.746Z,0.00
2018-07-04T01:36:46.835Z,0.00
2018-07-04T01:37:46.939Z,0.00
2018-07-04T01:38:47.039Z,0.00
2018-07-04T01:39:47.131Z,0.00
2018-07-04T01:40:47.229Z,0.00
2018-07-04T01:41:47.323Z,0.00
2018-07-04T01:42:47.420Z,0.00
2018-07-04T01:43:47.516Z,0.00
2018-07-04T01:44:47.614Z,0.00
2018-07-04T01:45:47.710Z,0.00
2018-07-04T01:46:47.804Z,0.00
2018-07-04T01:47:47.895Z,0.00
2018-07-04T01:48:47.988Z,0.00
2018-07-04T01:49:48.085Z,0.00
2018-07-04T01:50:48.189Z,0.00
2018-07-04T01:51:48.282Z,0.00
2018-07-04T01:52:48.381Z,0.00
2018-07-04T01:53:48.481Z,0.00
2018-07-04T01:54:48.577Z,0.00
2018-07-04T01:55:48.671Z,0.00
2018-07-04T01:56:48.769Z,0.00
2018-07-04T01:57:48.865Z,0.00
2018-07-04T01:58:48.970Z,0.00
2018-07-04T01:59:49.057Z,0.00
2018-07-04T02:00:49.156Z,0.00
2018-07-04T02:01:49.243Z,0.00
2018-07-04T02:02:49.346Z,0.00
2018-07-04T02:03:49.446Z,0.00
2018-07-04T02:04:49.539Z,0.00
2018-07-04T02:05:49.635Z,0.00
2018-07-04T02:06:49.731Z,0.00
2018-07-04T02:07:49.820Z,0.00
2018-07-04T02:08:49.913Z,0.00
2018-07-04T02:09:49.998Z,0.00
2018-07-04T02:10:50.145Z,0.00
2018-07-04T02:11:50.212Z,0.00
2018-07-04T02:12:50.292Z,0.00
2018-07-04T02:13:50.410Z,0.00
2018-07-04T02:14:50.507Z,0.00
2018-07-04T02:15:50.603Z,0.00
2018-07-04T02:16:50.684Z,0.00
2018-07-04T02:17:50.773Z,0.00
2018-07-04T02:18:50.863Z,0.00
2018-07-04T02:19:50.965Z,4.00
2018-07-04T02:20:51.062Z,4.00
2018-07-04T02:21:51.158Z,4.00
2018-07-04T02:22:51.258Z,4.00
2018-07-04T02:23:51.340Z,4.00
2018-07-04T02:24:51.560Z,4.00
2018-07-04T02:25:51.569Z,4.00
2018-07-04T02:26:51.667Z,4.00
2018-07-04T02:27:51.753Z,0.00
2018-07-04T02:28:51.925Z,0.00
2018-07-04T02:29:51.914Z,4.00
2018-07-04T02:30:52.006Z,4.00
2018-07-04T02:31:52.115Z,4.00
2018-07-04T02:32:52.226Z,4.00
2018-07-04T02:33:52.413Z,4.00
2018-07-04T02:34:52.382Z,4.00
2018-07-04T02:35:52.476Z,8.00
2018-07-04T02:36:52.569Z,4.00
2018-07-04T02:37:52.681Z,8.00
2018-07-04T02:38:52.789Z,8.00
2018-07-04T02:39:52.875Z,8.00
2018-07-04T02:40:52.975Z,8.00
2018-07-04T02:41:53.088Z,8.00
2018-07-04T02:42:53.203Z,8.00
2018-07-04T02:43:53.300Z,8.00
2018-07-04T02:44:53.419Z,12.00
2018-07-04T02:45:53.534Z,12.00
2018-07-04T02:46:53.560Z,16.00
2018-07-04T02:47:53.654Z,20.00
2018-07-04T02:48:53.746Z,20.00
2018-07-04T02:49:53.850Z,20.00
2018-07-04T02:50:53.937Z,24.00
2018-07-04T02:51:54.074Z,28.00
2018-07-04T02:52:54.173Z,32.00
2018-07-04T02:53:54.260Z,32.00
2018-07-04T02:54:54.412Z,36.00
2018-07-04T02:55:54.623Z,40.00
2018-07-04T02:56:54.504Z,44.00
2018-07-04T02:57:54.615Z,52.00
2018-07-04T02:58:54.719Z,56.00
2018-07-04T02:59:54.806Z,60.00
2018-07-04T03:00:54.889Z,68.00
2018-07-04T03:01:54.981Z,76.00
2018-07-04T03:02:55.067Z,84.00
2018-07-04T03:03:55.153Z,96.00
2018-07-04T03:04:55.232Z,104.00
2018-07-04T03:05:55.327Z,112.00
2018-07-04T03:06:55.417Z,124.00
2018-07-04T03:07:55.526Z,140.00
2018-07-04T03:08:55.633Z,152.00
2018-07-04T03:09:55.764Z,168.00
2018-07-04T03:10:55.858Z,184.00
2018-07-04T03:11:55.987Z,200.00
2018-07-04T03:12:56.076Z,220.00
2018-07-04T03:13:56.183Z,240.00
2018-07-04T03:14:56.274Z,260.00
2018-07-04T03:15:56.372Z,284.00
2018-07-04T03:16:56.457Z,304.00
2018-07-04T03:17:56.658Z,328.00
2018-07-04T03:18:56.798Z,352.00
2018-07-04T03:19:56.920Z,380.00
2018-07-04T03:20:57.012Z,408.00
2018-07-04T03:21:57.115Z,436.00
2018-07-04T03:22:57.208Z,468.00
2018-07-04T03:23:57.343Z,496.00
2018-07-04T03:24:57.424Z,532.00
2018-07-04T03:25:57.528Z,564.00
2018-07-04T03:26:57.635Z,600.00
2018-07-04T03:27:57.737Z,640.00
2018-07-04T03:28:57.828Z,676.00
2018-07-04T03:29:57.932Z,712.00
2018-07-04T03:30:58.030Z,752.00
2018-07-04T03:31:58.140Z,792.00
2018-07-04T03:32:58.270Z,832.00
2018-07-04T03:33:58.328Z,872.00
2018-07-04T03:34:58.433Z,912.00
2018-07-04T03:35:58.522Z,956.00
2018-07-04T03:36:58.620Z,996.00
2018-07-04T03:37:58.721Z,1040.00
2018-07-04T03:38:58.820Z,1080.00
2018-07-04T03:39:58.917Z,1124.00
2018-07-04T03:40:59.010Z,1168.00
2018-07-04T03:41:59.101Z,1212.00
2018-07-04T03:42:59.209Z,1260.00
2018-07-04T03:43:59.291Z,1308.00
2018-07-04T03:44:59.388Z,1356.00
2018-07-04T03:45:59.476Z,1400.00
2018-07-04T03:46:59.573Z,1448.00
2018-07-04T03:47:59.665Z,1496.00
2018-07-04T03:48:59.790Z,1536.00
2018-07-04T03:49:59.917Z,1584.00
2018-07-04T03:51:00.017Z,1628.00
2018-07-04T03:52:00.098Z,1672.00
2018-07-04T03:53:00.190Z,1716.00
2018-07-04T03:54:00.284Z,1756.00
2018-07-04T03:55:00.390Z,1796.00
2018-07-04T03:56:00.493Z,1836.00
2018-07-04T03:57:00.586Z,1872.00
2018-07-04T03:58:00.704Z,1916.00
2018-07-04T03:59:00.771Z,1940.00
2018-07-04T04:00:00.883Z,1972.00
2018-07-04T04:01:00.977Z,2012.00
2018-07-04T04:02:01.071Z,2048.00
2018-07-04T04:03:01.170Z,2088.00
2018-07-04T04:04:01.266Z,2128.00
2018-07-04T04:05:01.356Z,2176.00
2018-07-04T04:06:01.455Z,2208.00
2018-07-04T04:07:01.549Z,2236.00
2018-07-04T04:08:01.645Z,2256.00
2018-07-04T04:09:01.746Z,2280.00
2018-07-04T04:10:01.832Z,2312.00
2018-07-04T04:11:01.937Z,2348.00
2018-07-04T04:12:02.030Z,2376.00
2018-07-04T04:13:02.136Z,2400.00
2018-07-04T04:14:02.214Z,2416.00
2018-07-04T04:15:02.323Z,2440.00
2018-07-04T04:16:02.431Z,2468.00
2018-07-04T04:17:02.524Z,2488.00
2018-07-04T04:18:02.628Z,2492.00
2018-07-04T04:19:02.717Z,2496.00
2018-07-04T04:20:02.816Z,2508.00
2018-07-04T04:21:02.896Z,2520.00
2018-07-04T04:22:02.987Z,2544.00
2018-07-04T04:23:03.078Z,2564.00
2018-07-04T04:24:03.179Z,2596.00
2018-07-04T04:25:03.300Z,2620.00
2018-07-04T04:26:03.404Z,2636.00
2018-07-04T04:27:03.514Z,2656.00
2018-07-04T04:28:03.598Z,2676.00
2018-07-04T04:29:03.701Z,2780.00
2018-07-04T04:30:03.799Z,2712.00
2018-07-04T04:31:03.896Z,2728.00
2018-07-04T04:32:04.005Z,2744.00
2018-07-04T04:33:04.097Z,2760.00
2018-07-04T04:34:04.196Z,2800.00
2018-07-04T04:35:04.294Z,2872.00
2018-07-04T04:36:04.408Z,2976.00
2018-07-04T04:37:04.520Z,3084.00
2018-07-04T04:38:04.611Z,3176.00
2018-07-04T04:39:04.713Z,3240.00
2018-07-04T04:40:04.808Z,3308.00
2018-07-04T04:41:04.907Z,3372.00
2018-07-04T04:42:05.020Z,3444.00
2018-07-04T04:43:05.110Z,3500.00
2018-07-04T04:44:05.203Z,3552.00
2018-07-04T04:45:05.298Z,3608.00
2018-07-04T04:46:05.387Z,3684.00
2018-07-04T04:47:05.489Z,3756.00
2018-07-04T04:48:05.581Z,3836.00
2018-07-04T04:49:05.689Z,3880.00
2018-07-04T04:50:05.787Z,3924.00
2018-07-04T04:51:05.890Z,4032.00
2018-07-04T04:52:05.985Z,4040.00
2018-07-04T04:53:06.072Z,4116.00
2018-07-04T04:54:06.168Z,4188.00
2018-07-04T04:55:06.273Z,4252.00
2018-07-04T04:56:06.371Z,4312.00
2018-07-04T04:57:06.467Z,4352.00
2018-07-04T04:58:06.565Z,4352.00
2018-07-04T04:59:06.664Z,4332.00
2018-07-04T05:00:06.761Z,4320.00
2018-07-04T05:01:06.864Z,4320.00
2018-07-04T05:02:06.958Z,4340.00
2018-07-04T05:03:07.057Z,4324.00
2018-07-04T05:04:07.159Z,4316.00
2018-07-04T05:05:07.269Z,4352.00
2018-07-04T05:06:07.369Z,4372.00
2018-07-04T05:07:07.469Z,4456.00
2018-07-04T05:08:07.565Z,4532.00
2018-07-04T05:09:07.666Z,4612.00
2018-07-04T05:10:07.778Z,4668.00
2018-07-04T05:11:07.878Z,4736.00
2018-07-04T05:12:07.977Z,4632.00
2018-07-04T05:13:08.110Z,4656.00
2018-07-04T05:14:08.203Z,4724.00
2018-07-04T05:15:08.300Z,4756.00
2018-07-04T05:16:08.397Z,4840.00
2018-07-04T05:17:08.497Z,4924.00
2018-07-04T05:18:08.585Z,4996.00
2018-07-04T05:19:08.682Z,5036.00
2018-07-04T05:20:08.788Z,5040.00
2018-07-04T05:21:08.889Z,5016.00
2018-07-04T05:22:08.992Z,5004.00
2018-07-04T05:23:09.098Z,5052.00
2018-07-04T05:24:09.191Z,5248.00
2018-07-04T05:25:09.288Z,6584.00
2018-07-04T05:26:09.388Z,17216.00
2018-07-04T05:27:09.507Z,28384.00
2018-07-04T05:28:09.658Z,31456.00
2018-07-04T05:29:09.703Z,32928.00
2018-07-04T05:30:09.802Z,33920.00
2018-07-04T05:31:09.902Z,32224.00
2018-07-04T05:32:10.002Z,27968.00
2018-07-04T05:33:10.102Z,25984.00
2018-07-04T05:34:10.217Z,25376.00
2018-07-04T05:35:10.343Z,26688.00
2018-07-04T05:36:10.415Z,27296.00
2018-07-04T05:37:10.514Z,28960.00
2018-07-04T05:38:10.614Z,28192.00
2018-07-04T05:39:10.714Z,14144.00
2018-07-04T05:40:10.814Z,10208.00
2018-07-04T05:41:10.925Z,19424.00
2018-07-04T05:42:11.028Z,31264.00
2018-07-04T05:43:11.129Z,31136.00
2018-07-04T05:44:11.230Z,31776.00
2018-07-04T05:45:11.334Z,33824.00
2018-07-04T05:46:11.435Z,36352.00
2018-07-04T05:47:11.537Z,37312.00
2018-07-04T05:48:11.639Z,37440.00
2018-07-04T05:49:11.743Z,38656.00
2018-07-04T05:50:11.845Z,39040.00
2018-07-04T05:51:11.950Z,38720.00
2018-07-04T05:52:12.052Z,38720.00
2018-07-04T05:53:12.157Z,39136.00
2018-07-04T05:54:12.262Z,40192.00
2018-07-04T05:55:12.397Z,41120.00
2018-07-04T05:56:12.514Z,42112.00
2018-07-04T05:57:12.569Z,42496.00
2018-07-04T05:58:12.675Z,41856.00
2018-07-04T05:59:12.782Z,41408.00
2018-07-04T06:00:12.886Z,41632.00
2018-07-04T06:01:12.991Z,41280.00
2018-07-04T06:02:13.099Z,40800.00
2018-07-04T06:03:13.196Z,37536.00
2018-07-04T06:04:13.308Z,39104.00
2018-07-04T06:05:13.417Z,39040.00
2018-07-04T06:06:13.526Z,37728.00
2018-07-04T06:07:13.634Z,39616.00
2018-07-04T06:08:13.744Z,40896.00
2018-07-04T06:09:13.892Z,41824.00
2018-07-04T06:10:13.971Z,41824.00
2018-07-04T06:11:14.078Z,40928.00
2018-07-04T06:12:14.186Z,38944.00
2018-07-04T06:13:14.293Z,36800.00
2018-07-04T06:14:14.401Z,36064.00
2018-07-04T06:15:14.506Z,37632.00
2018-07-04T06:16:14.615Z,38560.00
2018-07-04T06:17:14.722Z,39136.00
2018-07-04T06:18:14.821Z,37792.00
2018-07-04T06:19:14.928Z,22624.00
2018-07-04T06:20:15.037Z,6948.00
2018-07-04T06:21:15.145Z,6112.00
2018-07-04T06:22:15.254Z,6024.00
2018-07-04T06:23:15.363Z,5952.00
2018-07-04T06:24:15.470Z,5892.00
2018-07-04T06:25:15.595Z,5852.00
2018-07-04T06:26:15.712Z,5800.00
2018-07-04T06:27:15.812Z,5764.00
2018-07-04T06:28:15.923Z,5748.00
2018-07-04T06:29:16.036Z,5724.00
2018-07-04T06:30:16.140Z,5712.00
2018-07-04T06:31:16.243Z,5752.00
2018-07-04T06:32:16.356Z,5664.00
2018-07-04T06:33:16.450Z,5688.00
2018-07-04T06:34:16.564Z,5680.00
2018-07-04T06:35:16.670Z,5692.00
2018-07-04T06:36:16.779Z,5656.00
2018-07-04T06:37:16.885Z,5640.00
2018-07-04T06:38:16.997Z,5628.00
2018-07-04T06:39:17.115Z,5648.00
2018-07-04T06:40:17.228Z,5644.00
2018-07-04T06:41:17.345Z,5648.00
2018-07-04T06:42:17.449Z,5676.00
2018-07-04T06:43:17.554Z,5712.00
2018-07-04T06:44:17.710Z,5704.00
2018-07-04T06:45:17.822Z,5720.00
2018-07-04T06:46:17.929Z,5688.00
2018-07-04T06:47:18.031Z,5748.00
2018-07-04T06:48:18.139Z,5720.00
2018-07-04T06:49:18.334Z,5752.00
2018-07-04T06:50:18.346Z,5744.00
2018-07-04T06:51:18.451Z,5756.00
2018-07-04T06:52:18.557Z,5788.00
2018-07-04T06:53:18.659Z,5792.00
2018-07-04T06:54:18.842Z,5760.00
2018-07-04T06:55:18.857Z,5820.00
2018-07-04T06:56:18.976Z,5832.00
2018-07-04T06:57:19.063Z,5816.00
2018-07-04T06:58:19.178Z,5840.00
2018-07-04T06:59:19.282Z,5732.00
2018-07-04T07:00:19.382Z,5912.00
2018-07-04T07:01:19.483Z,5960.00
2018-07-04T07:02:19.582Z,5936.00
2018-07-04T07:03:19.789Z,5932.00
2018-07-04T07:04:19.767Z,6040.00
2018-07-04T07:05:19.886Z,5956.00
2018-07-04T07:06:19.984Z,5960.00
2018-07-04T07:07:20.088Z,6072.00
2018-07-04T07:08:20.246Z,5944.00
2018-07-04T07:09:20.306Z,5960.00
2018-07-04T07:10:20.400Z,5972.00
2018-07-04T07:11:20.489Z,5952.00
2018-07-04T07:12:20.593Z,5952.00
2018-07-04T07:13:20.693Z,6008.00
2018-07-04T07:14:20.793Z,6004.00
2018-07-04T07:15:20.878Z,6084.00
2018-07-04T07:16:20.983Z,5992.00
2018-07-04T07:17:21.084Z,5936.00
2018-07-04T07:18:21.196Z,5900.00
2018-07-04T07:19:21.316Z,5920.00
2018-07-04T07:20:21.418Z,6080.00
2018-07-04T07:21:21.523Z,6224.00
2018-07-04T07:22:21.627Z,6240.00
2018-07-04T07:23:21.754Z,6368.00
2018-07-04T07:24:21.973Z,6236.00
2018-07-04T07:25:22.001Z,6220.00
2018-07-04T07:26:22.097Z,6240.00
2018-07-04T07:27:22.216Z,6444.00
2018-07-04T07:28:22.318Z,6676.00
2018-07-04T07:29:22.407Z,6420.00
2018-07-04T07:30:22.521Z,6976.00
2018-07-04T07:31:22.633Z,7120.00
2018-07-04T07:32:22.730Z,7040.00
2018-07-04T07:33:22.840Z,6884.00
2018-07-04T07:34:23.047Z,7280.00
2018-07-04T07:35:23.057Z,8064.00
2018-07-04T07:36:23.152Z,7848.00
2018-07-04T07:37:23.252Z,7876.00
2018-07-04T07:38:23.363Z,7984.00
2018-07-04T07:39:23.538Z,8348.00
2018-07-04T07:40:23.540Z,8304.00
2018-07-04T07:41:23.650Z,7928.00
2018-07-04T07:42:23.770Z,8292.00
2018-07-04T07:43:23.851Z,8316.00
2018-07-04T07:44:23.950Z,8048.00
2018-07-04T07:45:24.043Z,8116.00
2018-07-04T07:46:24.149Z,8136.00
2018-07-04T07:47:24.262Z,8004.00
2018-07-04T07:48:24.416Z,7876.00
2018-07-04T07:49:24.521Z,7716.00
2018-07-04T07:50:24.607Z,7588.00
2018-07-04T07:51:24.707Z,7436.00
2018-07-04T07:52:24.813Z,6676.00
2018-07-04T07:53:24.948Z,6944.00
2018-07-04T07:54:25.155Z,6356.00
2018-07-04T07:55:25.271Z,7136.00
2018-07-04T07:56:25.257Z,7324.00
2018-07-04T07:57:25.358Z,7408.00
2018-07-04T07:58:25.474Z,7480.00
2018-07-04T07:59:25.602Z,7552.00
2018-07-04T08:00:25.704Z,7528.00
2018-07-04T08:01:25.809Z,7544.00
2018-07-04T08:02:25.903Z,7472.00
2018-07-04T08:03:26.009Z,7496.00
2018-07-04T08:04:26.111Z,7476.00
2018-07-04T08:05:26.226Z,7512.00
2018-07-04T08:06:26.323Z,7464.00
2018-07-04T08:07:26.424Z,7460.00
2018-07-04T08:08:26.525Z,7444.00
2018-07-04T08:09:26.632Z,7496.00
2018-07-04T08:10:26.762Z,7564.00
2018-07-04T08:11:26.870Z,7708.00
2018-07-04T08:12:26.989Z,7972.00
2018-07-04T08:13:27.086Z,8240.00
2018-07-04T08:14:27.201Z,8120.00
2018-07-04T08:15:27.318Z,8100.00
2018-07-04T08:16:27.413Z,8072.00
2018-07-04T08:17:27.514Z,8164.00
2018-07-04T08:18:27.622Z,8228.00
2018-07-04T08:19:27.723Z,8248.00
2018-07-04T08:20:27.827Z,8324.00
2018-07-04T08:21:27.934Z,7232.00
2018-07-04T08:22:28.034Z,7160.00
2018-07-04T08:23:28.145Z,7528.00
2018-07-04T08:24:28.259Z,7324.00
2018-07-04T08:25:28.398Z,7948.00
2018-07-04T08:26:28.492Z,7512.00
2018-07-04T08:27:28.599Z,7736.00
2018-07-04T08:28:28.698Z,8052.00
2018-07-04T08:29:28.810Z,9140.00
2018-07-04T08:30:28.921Z,7976.00
2018-07-04T08:31:29.029Z,8500.00
2018-07-04T08:32:29.181Z,9180.00
2018-07-04T08:33:29.293Z,8848.00
2018-07-04T08:34:29.400Z,9400.00
2018-07-04T08:35:29.496Z,9416.00
2018-07-04T08:36:29.614Z,9384.00
2018-07-04T08:37:29.716Z,10068.00
2018-07-04T08:38:29.823Z,10620.00
2018-07-04T08:39:29.930Z,10368.00
2018-07-04T08:40:30.031Z,10196.00
2018-07-04T08:41:30.128Z,10148.00
2018-07-04T08:42:30.259Z,10472.00
2018-07-04T08:43:30.360Z,9964.00
2018-07-04T08:44:30.469Z,9848.00
2018-07-04T08:45:30.576Z,10816.00
2018-07-04T08:46:30.666Z,10644.00
2018-07-04T08:47:30.768Z,10660.00
2018-07-04T08:48:30.879Z,10564.00
2018-07-04T08:49:30.990Z,10152.00
2018-07-04T08:50:31.084Z,9980.00
2018-07-04T08:51:31.230Z,10332.00
2018-07-04T08:52:31.381Z,10112.00
2018-07-04T08:53:31.445Z,9916.00
2018-07-04T08:54:31.563Z,10092.00
2018-07-04T08:55:31.663Z,9700.00
2018-07-04T08:56:31.773Z,9628.00
2018-07-04T08:57:31.890Z,10196.00
2018-07-04T08:58:32.010Z,9248.00
2018-07-04T08:59:32.122Z,9056.00
2018-07-04T09:00:32.228Z,8976.00
2018-07-04T09:01:32.358Z,9528.00
2018-07-04T09:02:32.465Z,8780.00
2018-07-04T09:03:32.579Z,9916.00
2018-07-04T09:04:32.686Z,8864.00
2018-07-04T09:05:32.856Z,9044.00
2018-07-04T09:06:32.921Z,9352.00
2018-07-04T09:07:33.018Z,9384.00
2018-07-04T09:08:33.132Z,9148.00
2018-07-04T09:09:33.238Z,9212.00
2018-07-04T09:10:33.340Z,9348.00
2018-07-04T09:11:33.507Z,9372.00
2018-07-04T09:12:33.601Z,9536.00
2018-07-04T09:13:33.701Z,9288.00
2018-07-04T09:14:33.809Z,9856.00
2018-07-04T09:15:33.914Z,10120.00
2018-07-04T09:16:34.016Z,10332.00
2018-07-04T09:17:34.113Z,10292.00
2018-07-04T09:18:34.219Z,10764.00
2018-07-04T09:19:34.328Z,10644.00
2018-07-04T09:20:34.440Z,10672.00
2018-07-04T09:21:34.549Z,10576.00
2018-07-04T09:22:34.664Z,10692.00
2018-07-04T09:23:34.775Z,10740.00
2018-07-04T09:24:34.905Z,10660.00
2018-07-04T09:25:35.001Z,10656.00
2018-07-04T09:26:35.116Z,10600.00
2018-07-04T09:27:35.228Z,10516.00
2018-07-04T09:28:35.335Z,10352.00
2018-07-04T09:29:35.436Z,10188.00
2018-07-04T09:30:35.605Z,9932.00
2018-07-04T09:31:35.705Z,9420.00
2018-07-04T09:32:35.865Z,10000.00
2018-07-04T09:33:35.949Z,9876.00
2018-07-04T09:34:36.075Z,9628.00
2018-07-04T09:35:36.195Z,9776.00
2018-07-04T09:36:36.322Z,9868.00
2018-07-04T09:37:36.435Z,9972.00
2018-07-04T09:38:36.542Z,10100.00
2018-07-04T09:39:36.647Z,10212.00
2018-07-04T09:40:36.749Z,10316.00
2018-07-04T09:41:36.848Z,10212.00
2018-07-04T09:42:36.959Z,10208.00
2018-07-04T09:43:37.061Z,10228.00
2018-07-04T09:44:37.170Z,9964.00
2018-07-04T09:45:37.280Z,10248.00
2018-07-04T09:46:37.389Z,10596.00
2018-07-04T09:47:37.511Z,10920.00
2018-07-04T09:48:37.600Z,11108.00
2018-07-04T09:49:37.727Z,11420.00
2018-07-04T09:50:37.832Z,11192.00
2018-07-04T09:51:37.940Z,11736.00
2018-07-04T09:52:38.067Z,11832.00
2018-07-04T09:53:38.173Z,12012.00
2018-07-04T09:54:38.284Z,11888.00
2018-07-04T09:55:38.388Z,12028.00
2018-07-04T09:56:38.499Z,12092.00
2018-07-04T09:57:38.609Z,12092.00
2018-07-04T09:58:38.726Z,12272.00
2018-07-04T09:59:38.840Z,12212.00
2018-07-04T10:00:38.952Z,12008.00
2018-07-04T10:01:39.058Z,10712.00
2018-07-04T10:02:39.170Z,11568.00
2018-07-04T10:03:39.266Z,10312.00
2018-07-04T10:04:39.374Z,10088.00
2018-07-04T10:05:39.516Z,10016.00
2018-07-04T10:06:39.594Z,9972.00
2018-07-04T10:07:39.704Z,10028.00
2018-07-04T10:08:39.806Z,10004.00
2018-07-04T10:09:39.914Z,9884.00
2018-07-04T10:10:40.024Z,9848.00
2018-07-04T10:11:40.137Z,9904.00
2018-07-04T10:12:40.304Z,9880.00
2018-07-04T10:13:40.352Z,9784.00
2018-07-04T10:14:40.462Z,9616.00
2018-07-04T10:15:40.573Z,9428.00
2018-07-04T10:16:40.682Z,9380.00
2018-07-04T10:17:40.792Z,9228.00
2018-07-04T10:18:40.907Z,9156.00
2018-07-04T10:19:41.010Z,9036.00
2018-07-04T10:20:41.118Z,8980.00
2018-07-04T10:21:41.229Z,8872.00
2018-07-04T10:22:41.340Z,8772.00
2018-07-04T10:23:41.450Z,8664.00
2018-07-04T10:24:41.603Z,8588.00
2018-07-04T10:25:41.671Z,8488.00
2018-07-04T10:26:41.799Z,8468.00
2018-07-04T10:27:41.915Z,8316.00
2018-07-04T10:28:42.014Z,8212.00
2018-07-04T10:29:42.132Z,8128.00
2018-07-04T10:30:42.246Z,8064.00
2018-07-04T10:31:42.357Z,8048.00
2018-07-04T10:32:42.465Z,8016.00
2018-07-04T10:33:42.582Z,8056.00
2018-07-04T10:34:42.712Z,8176.00
2018-07-04T10:35:42.821Z,8328.00
2018-07-04T10:36:42.929Z,8352.00
2018-07-04T10:37:43.052Z,8348.00
2018-07-04T10:38:43.151Z,8300.00
2018-07-04T10:39:43.253Z,8388.00
2018-07-04T10:40:43.367Z,8428.00
2018-07-04T10:41:43.487Z,8428.00
2018-07-04T10:42:43.586Z,8424.00
2018-07-04T10:43:43.696Z,8480.00
2018-07-04T10:44:43.841Z,8480.00
2018-07-04T10:45:43.914Z,8504.00
2018-07-04T10:46:44.030Z,8552.00
2018-07-04T10:47:44.147Z,8580.00
2018-07-04T10:48:44.256Z,8532.00
2018-07-04T10:49:44.367Z,8516.00
2018-07-04T10:50:44.471Z,8340.00
2018-07-04T10:51:44.578Z,8640.00
2018-07-04T10:52:44.691Z,8836.00
2018-07-04T10:53:44.802Z,8596.00
2018-07-04T10:54:44.914Z,8612.00
2018-07-04T10:55:45.036Z,8588.00
2018-07-04T10:56:45.137Z,8584.00
2018-07-04T10:57:45.251Z,8572.00
2018-07-04T10:58:45.360Z,8736.00
2018-07-04T10:59:45.470Z,8424.00
2018-07-04T11:00:45.580Z,8404.00
2018-07-04T11:01:45.687Z,8408.00
2018-07-04T11:02:45.792Z,8520.00
2018-07-04T11:03:45.912Z,8564.00
2018-07-04T11:04:46.016Z,8604.00
2018-07-04T11:05:46.124Z,8648.00
2018-07-04T11:06:46.240Z,8676.00
2018-07-04T11:07:46.373Z,8700.00
2018-07-04T11:08:46.446Z,8664.00
2018-07-04T11:09:46.550Z,8644.00
2018-07-04T11:10:46.659Z,8608.00
2018-07-04T11:11:46.769Z,8384.00
2018-07-04T11:12:46.880Z,8236.00
2018-07-04T11:13:47.005Z,8108.00
2018-07-04T11:14:47.110Z,8108.00
2018-07-04T11:15:47.215Z,8032.00
2018-07-04T11:16:47.326Z,8032.00
2018-07-04T11:17:47.454Z,8056.00
2018-07-04T11:18:47.558Z,8180.00
2018-07-04T11:19:47.679Z,8000.00
2018-07-04T11:20:47.792Z,7980.00
2018-07-04T11:21:47.910Z,7860.00
2018-07-04T11:22:48.006Z,7768.00
2018-07-04T11:23:48.112Z,7748.00
2018-07-04T11:24:48.229Z,7804.00
2018-07-04T11:25:48.335Z,7944.00
2018-07-04T11:26:48.445Z,8500.00
2018-07-04T11:27:48.556Z,9108.00
2018-07-04T11:28:48.659Z,8936.00
2018-07-04T11:29:48.768Z,9976.00
2018-07-04T11:30:48.876Z,10396.00
2018-07-04T11:31:48.991Z,9368.00
2018-07-04T11:32:49.091Z,9208.00
2018-07-04T11:33:49.274Z,9092.00
2018-07-04T11:34:49.263Z,9212.00
2018-07-04T11:35:49.393Z,9316.00
2018-07-04T11:36:49.494Z,9792.00
2018-07-04T11:37:49.602Z,9932.00
2018-07-04T11:38:49.721Z,9100.00
2018-07-04T11:39:49.832Z,9124.00
2018-07-04T11:40:49.941Z,10760.00
2018-07-04T11:41:50.041Z,9072.00
2018-07-04T11:42:50.147Z,9216.00
2018-07-04T11:43:50.255Z,9332.00
2018-07-04T11:44:50.361Z,9040.00
2018-07-04T11:45:50.472Z,9064.00
2018-07-04T11:46:50.611Z,9012.00
2018-07-04T11:47:50.734Z,8776.00
2018-07-04T11:48:50.868Z,9032.00
2018-07-04T11:49:50.966Z,9692.00
2018-07-04T11:50:51.134Z,9572.00
2018-07-04T11:51:51.261Z,9740.00
2018-07-04T11:52:51.385Z,9144.00
2018-07-04T11:53:51.490Z,9104.00
2018-07-04T11:54:51.602Z,9208.00
2018-07-04T11:55:51.763Z,10864.00
2018-07-04T11:56:51.898Z,9684.00
2018-07-04T11:57:52.012Z,9816.00
2018-07-04T11:58:52.162Z,11348.00
2018-07-04T11:59:52.209Z,10804.00
2018-07-04T12:00:52.304Z,10620.00
2018-07-04T12:01:52.530Z,9136.00
2018-07-04T12:02:52.571Z,9064.00
2018-07-04T12:03:52.698Z,8924.00
2018-07-04T12:04:52.897Z,8776.00
2018-07-04T12:05:52.882Z,8612.00
2018-07-04T12:06:53.048Z,8508.00
2018-07-04T12:07:53.162Z,8596.00
2018-07-04T12:08:53.175Z,8600.00
2018-07-04T12:09:53.282Z,9140.00
2018-07-04T12:10:53.403Z,8836.00
2018-07-04T12:11:53.529Z,8912.00
2018-07-04T12:12:53.660Z,8696.00
2018-07-04T12:13:53.764Z,8688.00
2018-07-04T12:14:53.884Z,8792.00
2018-07-04T12:15:53.996Z,8800.00
2018-07-04T12:16:54.094Z,8864.00
2018-07-04T12:17:54.261Z,8932.00
2018-07-04T12:18:54.404Z,8932.00
2018-07-04T12:19:54.538Z,8888.00
2018-07-04T12:20:54.698Z,8892.00